createdAt,value
2018-03-25T00:00:12.182Z,2.29
2018-03-25T00:01:12.136Z,2.30
2018-03-25T00:02:12.092Z,2.38
2018-03-25T00:03:12.035Z,2.53
2018-03-25T00:04:11.987Z,2.50
2018-03-25T00:05:12.245Z,2.50
2018-03-25T00:06:11.895Z,2.50
2018-03-25T00:07:11.891Z,2.56
2018-03-25T00:08:11.792Z,2.56
2018-03-25T00:09:11.746Z,2.51
2018-03-25T00:10:11.696Z,2.48
2018-03-25T00:11:11.948Z,2.55
2018-03-25T00:12:11.606Z,2.58
2018-03-25T00:13:11.752Z,2.51
2018-03-25T00:14:11.502Z,2.56
2018-03-25T00:15:11.454Z,2.58
2018-03-25T00:16:11.409Z,2.62
2018-03-25T00:17:11.663Z,2.56
2018-03-25T00:18:11.310Z,2.68
2018-03-25T00:19:11.262Z,2.62
2018-03-25T00:20:11.264Z,2.61
2018-03-25T00:21:11.164Z,2.62
2018-03-25T00:22:11.120Z,2.68
2018-03-25T00:23:11.075Z,2.65
2018-03-25T00:24:11.321Z,2.74
2018-03-25T00:25:10.971Z,2.77
2018-03-25T00:26:10.924Z,2.80
2018-03-25T00:27:10.881Z,2.83
2018-03-25T00:28:10.829Z,2.86
2018-03-25T00:29:10.780Z,2.69
2018-03-25T00:30:10.732Z,2.66
2018-03-25T00:31:10.986Z,2.69
2018-03-25T00:32:10.687Z,2.71
2018-03-25T00:33:10.589Z,2.68
2018-03-25T00:34:10.595Z,2.76
2018-03-25T00:35:10.494Z,2.83
2018-03-25T00:36:10.444Z,2.76
2018-03-25T00:37:10.397Z,2.81
2018-03-25T00:38:10.651Z,2.80
2018-03-25T00:39:10.305Z,2.92
2018-03-25T00:40:10.253Z,2.80
2018-03-25T00:41:10.205Z,2.84
2018-03-25T00:42:10.158Z,2.87
2018-03-25T00:43:10.114Z,2.90
2018-03-25T00:44:10.061Z,2.81
2018-03-25T00:45:10.313Z,2.87
2018-03-25T00:46:09.967Z,2.99
2018-03-25T00:47:09.918Z,2.94
2018-03-25T00:48:09.868Z,2.92
2018-03-25T00:49:09.822Z,2.99
2018-03-25T00:50:09.773Z,2.97
2018-03-25T00:51:09.728Z,3.05
2018-03-25T00:52:09.983Z,3.07
2018-03-25T00:53:09.630Z,3.10
2018-03-25T00:54:09.582Z,3.12
2018-03-25T00:55:09.536Z,3.10
2018-03-25T00:56:09.495Z,3.23
2018-03-25T00:57:09.455Z,3.22
2018-03-25T00:58:09.392Z,3.23
2018-03-25T00:59:09.644Z,3.34
2018-03-25T01:00:09.295Z,3.33
2018-03-25T01:01:09.255Z,3.31
2018-03-25T01:02:09.204Z,3.34
2018-03-25T01:03:09.153Z,3.42
2018-03-25T01:04:09.104Z,3.41
2018-03-25T01:05:09.357Z,3.44
2018-03-25T01:06:09.011Z,3.46
2018-03-25T01:07:08.966Z,3.49
2018-03-25T01:08:08.921Z,3.39
2018-03-25T01:09:08.869Z,3.46
2018-03-25T01:10:08.826Z,3.45
2018-03-25T01:11:09.129Z,3.45
2018-03-25T01:12:08.725Z,3.45
2018-03-25T01:13:08.678Z,3.53
2018-03-25T01:14:08.632Z,3.54
2018-03-25T01:15:08.589Z,3.53
2018-03-25T01:16:08.534Z,3.52
2018-03-25T01:17:08.788Z,3.53
2018-03-25T01:18:08.441Z,3.56
2018-03-25T01:19:08.397Z,3.57
2018-03-25T01:20:08.347Z,3.59
2018-03-25T01:21:08.301Z,3.53
2018-03-25T01:22:08.257Z,3.50
2018-03-25T01:23:08.506Z,3.45
2018-03-25T01:24:08.156Z,3.60
2018-03-25T01:25:08.110Z,3.52
2018-03-25T01:26:08.087Z,3.63
2018-03-25T01:27:08.015Z,3.56
2018-03-25T01:28:07.967Z,3.49
2018-03-25T01:29:08.274Z,3.53
2018-03-25T01:30:07.884Z,3.45
2018-03-25T01:31:07.828Z,3.35
2018-03-25T01:32:07.780Z,3.44
2018-03-25T01:33:07.734Z,3.57
2018-03-25T01:34:07.833Z,3.41
2018-03-25T01:35:07.712Z,3.42
2018-03-25T01:36:07.897Z,3.46
2018-03-25T01:37:07.550Z,3.49
2018-03-25T01:38:07.495Z,3.30
2018-03-25T01:39:07.446Z,3.30
2018-03-25T01:40:07.400Z,3.33
2018-03-25T01:41:07.352Z,3.28
2018-03-25T01:42:07.306Z,3.28
2018-03-25T01:43:07.561Z,3.35
2018-03-25T01:44:07.212Z,3.46
2018-03-25T01:45:07.164Z,3.41
2018-03-25T01:46:07.115Z,3.45
2018-03-25T01:47:07.069Z,3.54
2018-03-25T01:48:07.019Z,3.59
2018-03-25T01:49:06.984Z,3.62
2018-03-25T01:50:07.229Z,3.71
2018-03-25T01:51:06.879Z,3.71
2018-03-25T01:52:06.880Z,3.68
2018-03-25T01:53:06.790Z,3.72
2018-03-25T01:54:06.736Z,3.70
2018-03-25T01:55:06.696Z,3.67
2018-03-25T01:56:06.642Z,3.71
2018-03-25T01:57:06.903Z,3.77
2018-03-25T01:58:06.558Z,3.72
2018-03-25T02:01:06.516Z,3.72
2018-03-25T02:02:06.363Z,3.68
2018-03-25T02:03:06.318Z,3.70
2018-03-25T02:04:06.560Z,3.71
2018-03-25T02:05:06.215Z,3.70
2018-03-25T02:06:06.165Z,3.62
2018-03-25T02:07:06.173Z,3.67
2018-03-25T02:08:06.078Z,3.60
2018-03-25T02:09:06.026Z,3.62
2018-03-25T02:10:06.279Z,3.60
2018-03-25T02:11:05.931Z,3.57
2018-03-25T02:12:05.887Z,3.49
2018-03-25T02:13:05.841Z,3.49
2018-03-25T02:14:05.794Z,3.45
2018-03-25T02:15:05.742Z,3.44
2018-03-25T02:16:05.998Z,3.42
2018-03-25T02:17:05.652Z,3.45
2018-03-25T02:18:05.601Z,3.49
2018-03-25T02:19:05.558Z,3.35
2018-03-25T02:20:05.506Z,3.45
2018-03-25T02:21:05.462Z,3.50
2018-03-25T02:22:05.711Z,3.45
2018-03-25T02:23:05.366Z,3.41
2018-03-25T02:24:05.319Z,3.39
2018-03-25T02:25:05.273Z,3.52
2018-03-25T02:26:05.223Z,3.52
2018-03-25T02:27:05.177Z,3.52
2018-03-25T02:28:05.427Z,3.46
2018-03-25T02:29:05.092Z,3.52
2018-03-25T02:30:05.035Z,3.52
2018-03-25T02:31:04.988Z,3.62
2018-03-25T02:32:04.938Z,3.62
2018-03-25T02:33:04.892Z,3.57
2018-03-25T02:34:05.161Z,3.62
2018-03-25T02:35:04.835Z,3.68
2018-03-25T02:36:04.802Z,3.70
2018-03-25T02:37:04.704Z,3.70
2018-03-25T02:38:04.658Z,3.70
2018-03-25T02:39:04.614Z,3.71
2018-03-25T02:40:04.865Z,3.63
2018-03-25T02:41:04.514Z,3.67
2018-03-25T02:42:04.470Z,3.67
2018-03-25T02:43:04.419Z,3.72
2018-03-25T02:44:04.373Z,3.67
2018-03-25T02:45:04.330Z,3.72
2018-03-25T02:46:04.277Z,3.70
2018-03-25T02:47:04.532Z,3.71
2018-03-25T02:48:04.182Z,3.67
2018-03-25T02:49:04.136Z,3.72
2018-03-25T02:50:04.088Z,3.67
2018-03-25T02:51:04.089Z,3.68
2018-03-25T02:52:03.998Z,3.62
2018-03-25T02:53:03.953Z,3.64
2018-03-25T02:54:04.201Z,3.68
2018-03-25T02:55:03.852Z,3.70
2018-03-25T02:56:03.805Z,3.70
2018-03-25T02:57:03.760Z,3.67
2018-03-25T02:58:03.711Z,3.72
2018-03-25T02:59:03.664Z,3.74
2018-03-25T03:00:03.615Z,3.78
2018-03-25T03:01:03.869Z,3.81
2018-03-25T03:02:03.526Z,3.82
2018-03-25T03:03:03.475Z,3.82
2018-03-25T03:04:03.427Z,3.81
2018-03-25T03:05:03.384Z,3.86
2018-03-25T03:06:03.333Z,3.82
2018-03-25T03:07:03.285Z,3.86
2018-03-25T03:08:03.539Z,3.86
2018-03-25T03:09:03.191Z,3.92
2018-03-25T03:10:03.144Z,3.93
2018-03-25T03:11:03.097Z,3.86
2018-03-25T03:12:03.049Z,3.92
2018-03-25T03:13:03.007Z,3.81
2018-03-25T03:14:02.955Z,3.92
2018-03-25T03:15:03.208Z,3.92
2018-03-25T03:16:02.865Z,3.88
2018-03-25T03:17:02.813Z,3.80
2018-03-25T03:18:02.767Z,3.82
2018-03-25T03:19:02.717Z,3.71
2018-03-25T03:20:02.670Z,3.86
2018-03-25T03:21:02.923Z,3.82
2018-03-25T03:22:02.579Z,3.90
2018-03-25T03:23:02.530Z,3.96
2018-03-25T03:24:02.482Z,3.93
2018-03-25T03:25:02.434Z,3.93
2018-03-25T03:26:02.390Z,3.92
2018-03-25T03:27:02.646Z,3.89
2018-03-25T03:28:02.296Z,3.89
2018-03-25T03:29:02.252Z,4.00
2018-03-25T03:30:02.202Z,3.99
2018-03-25T03:31:02.155Z,3.90
2018-03-25T03:32:02.160Z,4.00
2018-03-25T03:33:02.366Z,3.93
2018-03-25T03:34:02.013Z,3.82
2018-03-25T03:35:01.964Z,3.90
2018-03-25T03:36:01.915Z,3.82
2018-03-25T03:37:01.869Z,3.81
2018-03-25T03:38:01.823Z,3.90
2018-03-25T03:39:02.078Z,3.90
2018-03-25T03:40:01.730Z,3.88
2018-03-25T03:41:01.687Z,3.82
2018-03-25T03:42:01.656Z,3.81
2018-03-25T03:43:01.587Z,3.81
2018-03-25T03:44:01.540Z,3.86
2018-03-25T03:45:01.792Z,3.90
2018-03-25T03:46:01.444Z,3.93
2018-03-25T03:47:01.400Z,3.90
2018-03-25T03:48:01.351Z,3.90
2018-03-25T03:49:01.304Z,3.81
2018-03-25T03:50:01.257Z,3.86
2018-03-25T03:51:01.211Z,3.86
2018-03-25T03:52:01.463Z,3.82
2018-03-25T03:53:01.325Z,3.82
2018-03-25T03:54:01.068Z,3.84
2018-03-25T03:55:01.023Z,3.89
2018-03-25T03:56:00.981Z,3.98
2018-03-25T03:57:00.927Z,3.86
2018-03-25T03:58:00.891Z,3.84
2018-03-25T03:59:01.133Z,3.88
2018-03-25T04:00:00.786Z,3.88
2018-03-25T04:01:00.741Z,3.89
2018-03-25T04:02:00.693Z,3.86
2018-03-25T04:03:00.646Z,3.92
2018-03-25T04:04:00.598Z,3.86
2018-03-25T04:05:00.604Z,3.86
2018-03-25T04:06:00.812Z,3.89
2018-03-25T04:07:00.460Z,3.84
2018-03-25T04:08:00.412Z,3.86
2018-03-25T04:09:00.393Z,3.86
2018-03-25T04:10:00.322Z,3.89
2018-03-25T04:11:00.273Z,3.89
2018-03-25T04:12:00.223Z,3.81
2018-03-25T04:13:00.483Z,3.90
2018-03-25T04:14:00.130Z,3.90
2018-03-25T04:15:00.089Z,3.96
2018-03-25T04:16:00.034Z,4.00
2018-03-25T04:16:59.986Z,3.92
2018-03-25T04:17:59.950Z,3.86
2018-03-25T04:18:59.900Z,3.86
2018-03-25T04:20:00.146Z,3.86
2018-03-25T04:20:59.801Z,3.93
2018-03-25T04:21:59.753Z,3.90
2018-03-25T04:22:59.707Z,3.95
2018-03-25T04:23:59.656Z,3.96
2018-03-25T04:24:59.611Z,3.95
2018-03-25T04:25:59.562Z,4.00
2018-03-25T04:26:59.817Z,3.95
2018-03-25T04:27:59.469Z,3.86
2018-03-25T04:28:59.427Z,3.90
2018-03-25T04:29:59.379Z,3.95
2018-03-25T04:30:59.331Z,3.99
2018-03-25T04:31:59.281Z,4.00
2018-03-25T04:32:59.556Z,3.93
2018-03-25T04:33:59.186Z,4.06
2018-03-25T04:34:59.141Z,4.08
2018-03-25T04:35:59.095Z,4.02
2018-03-25T04:36:59.051Z,4.07
2018-03-25T04:37:59.005Z,4.06
2018-03-25T04:38:59.252Z,3.98
2018-03-25T04:39:58.904Z,4.14
2018-03-25T04:40:58.860Z,4.14
2018-03-25T04:41:58.816Z,4.14
2018-03-25T04:42:58.764Z,4.20
2018-03-25T04:43:58.714Z,4.14
2018-03-25T04:44:58.971Z,4.18
2018-03-25T04:45:58.625Z,4.10
2018-03-25T04:46:58.575Z,4.08
2018-03-25T04:47:58.531Z,4.08
2018-03-25T04:48:58.481Z,4.07
2018-03-25T04:49:58.432Z,4.13
2018-03-25T04:50:58.686Z,4.10
2018-03-25T04:51:58.339Z,4.20
2018-03-25T04:52:58.294Z,4.11
2018-03-25T04:53:58.247Z,4.08
2018-03-25T04:54:58.198Z,4.08
2018-03-25T04:55:58.159Z,4.08
2018-03-25T04:56:58.407Z,4.13
2018-03-25T04:57:58.063Z,4.18
2018-03-25T04:58:58.013Z,4.13
2018-03-25T04:59:57.964Z,4.17
2018-03-25T05:00:57.916Z,4.21
2018-03-25T05:01:57.870Z,4.24
2018-03-25T05:02:57.823Z,4.18
2018-03-25T05:03:58.082Z,4.13
2018-03-25T05:04:57.728Z,4.11
2018-03-25T05:05:57.686Z,4.11
2018-03-25T05:06:57.670Z,4.14
2018-03-25T05:07:57.592Z,4.17
2018-03-25T05:08:57.545Z,4.20
2018-03-25T05:09:57.493Z,4.14
2018-03-25T05:10:57.748Z,4.18
2018-03-25T05:11:57.408Z,4.16
2018-03-25T05:12:57.353Z,4.18
2018-03-25T05:13:57.316Z,4.25
2018-03-25T05:14:57.261Z,4.24
2018-03-25T05:15:57.217Z,4.26
2018-03-25T05:16:57.167Z,4.20
2018-03-25T05:17:57.420Z,4.24
2018-03-25T05:18:57.074Z,4.26
2018-03-25T05:19:57.030Z,4.34
2018-03-25T05:20:56.983Z,4.35
2018-03-25T05:21:57.758Z,4.29
2018-03-25T05:22:57.335Z,4.32
2018-03-25T05:23:57.417Z,4.21
2018-03-25T05:24:58.268Z,4.24
2018-03-25T05:25:57.215Z,4.26
2018-03-25T05:26:57.451Z,4.25
2018-03-25T05:27:57.311Z,4.28
2018-03-25T05:28:56.827Z,4.29
2018-03-25T05:29:57.308Z,4.21
2018-03-25T05:30:56.720Z,4.29
2018-03-25T05:31:59.309Z,4.29
2018-03-25T05:32:56.898Z,4.28
2018-03-25T05:33:57.056Z,4.25
2018-03-25T05:34:58.518Z,4.32
2018-03-25T05:35:56.705Z,4.35
2018-03-25T05:36:57.295Z,4.28
2018-03-25T05:37:57.474Z,4.35
2018-03-25T05:38:56.852Z,4.28
2018-03-25T05:39:56.794Z,4.26
2018-03-25T05:40:56.471Z,4.32
2018-03-25T05:41:56.244Z,4.36
2018-03-25T05:42:56.091Z,4.36
2018-03-25T05:43:56.873Z,4.34
2018-03-25T05:44:59.070Z,4.36
2018-03-25T05:45:56.039Z,4.35
2018-03-25T05:46:58.103Z,4.39
2018-03-25T05:47:55.716Z,4.43
2018-03-25T05:48:55.675Z,4.42
2018-03-25T05:49:55.630Z,4.34
2018-03-25T05:50:55.880Z,4.50
2018-03-25T05:51:55.536Z,4.46
2018-03-25T05:52:55.485Z,4.46
2018-03-25T05:53:55.493Z,4.51
2018-03-25T05:54:55.390Z,4.57
2018-03-25T05:55:55.345Z,4.61
2018-03-25T05:56:55.759Z,4.62
2018-03-25T05:57:55.252Z,4.62
2018-03-25T05:58:55.206Z,4.67
2018-03-25T05:59:55.161Z,4.69
2018-03-25T06:00:55.110Z,4.74
2018-03-25T06:01:55.065Z,4.74
2018-03-25T06:02:55.318Z,4.75
2018-03-25T06:03:54.971Z,4.74
2018-03-25T06:04:54.939Z,4.72
2018-03-25T06:05:54.882Z,4.83
2018-03-25T06:06:54.836Z,4.83
2018-03-25T06:07:54.792Z,4.84
2018-03-25T06:08:55.040Z,4.79
2018-03-25T06:09:54.700Z,4.84
2018-03-25T06:10:54.647Z,4.97
2018-03-25T06:11:54.607Z,4.99
2018-03-25T06:12:54.555Z,4.96
2018-03-25T06:13:54.548Z,4.97
2018-03-25T06:14:54.473Z,5.04
2018-03-25T06:15:54.772Z,5.12
2018-03-25T06:16:54.374Z,5.11
2018-03-25T06:17:54.324Z,5.14
2018-03-25T06:18:54.276Z,5.14
2018-03-25T06:19:54.232Z,5.12
2018-03-25T06:20:54.187Z,5.17
2018-03-25T06:21:54.141Z,5.24
2018-03-25T06:22:54.392Z,5.23
2018-03-25T06:23:54.045Z,5.29
2018-03-25T06:24:54.004Z,5.29
2018-03-25T06:25:53.954Z,5.38
2018-03-25T06:26:53.908Z,5.41
2018-03-25T06:27:53.861Z,5.40
2018-03-25T06:28:53.816Z,5.49
2018-03-25T06:29:54.076Z,5.56
2018-03-25T06:30:53.727Z,5.48
2018-03-25T06:31:53.678Z,5.59
2018-03-25T06:32:53.643Z,5.63
2018-03-25T06:33:53.590Z,5.66
2018-03-25T06:34:53.549Z,5.66
2018-03-25T06:35:53.495Z,5.65
2018-03-25T06:36:53.751Z,5.74
2018-03-25T06:37:53.408Z,5.84
2018-03-25T06:38:53.361Z,5.77
2018-03-25T06:39:53.326Z,5.84
2018-03-25T06:40:53.270Z,5.84
2018-03-25T06:41:53.221Z,5.88
2018-03-25T06:42:53.180Z,6.02
2018-03-25T06:43:53.430Z,5.98
2018-03-25T06:44:53.085Z,6.03
2018-03-25T06:45:53.044Z,6.01
2018-03-25T06:46:52.998Z,6.08
2018-03-25T06:47:52.955Z,6.03
2018-03-25T06:48:52.903Z,6.19
2018-03-25T06:49:52.861Z,6.25
2018-03-25T06:50:53.115Z,6.32
2018-03-25T06:51:52.770Z,6.40
2018-03-25T06:52:52.720Z,6.43
2018-03-25T06:53:52.684Z,6.30
2018-03-25T06:54:52.641Z,6.39
2018-03-25T06:55:52.592Z,6.38
2018-03-25T06:56:52.840Z,6.43
2018-03-25T06:57:52.495Z,6.42
2018-03-25T06:58:52.455Z,6.55
2018-03-25T06:59:52.407Z,6.54
2018-03-25T07:00:52.365Z,6.64
2018-03-25T07:01:52.316Z,6.65
2018-03-25T07:02:52.571Z,6.73
2018-03-25T07:03:52.224Z,6.91
2018-03-25T07:04:52.180Z,6.87
2018-03-25T07:05:52.135Z,6.86
2018-03-25T07:06:52.091Z,6.79
2018-03-25T07:07:52.045Z,6.78
2018-03-25T07:08:52.302Z,6.76
2018-03-25T07:09:51.963Z,6.90
2018-03-25T07:10:51.911Z,6.89
2018-03-25T07:11:51.864Z,6.82
2018-03-25T07:12:51.828Z,6.89
2018-03-25T07:13:51.781Z,7.00
2018-03-25T07:14:52.034Z,6.97
2018-03-25T07:15:51.688Z,7.11
2018-03-25T07:16:51.648Z,7.12
2018-03-25T07:17:51.596Z,7.05
2018-03-25T07:18:51.552Z,7.07
2018-03-25T07:19:51.513Z,7.05
2018-03-25T07:20:51.764Z,7.11
2018-03-25T07:21:51.428Z,7.23
2018-03-25T07:22:51.373Z,7.15
2018-03-25T07:23:51.326Z,7.34
2018-03-25T07:24:51.296Z,7.50
2018-03-25T07:25:51.238Z,7.62
2018-03-25T07:26:51.196Z,7.76
2018-03-25T07:27:51.450Z,7.86
2018-03-25T07:28:51.116Z,7.79
2018-03-25T07:29:51.061Z,8.03
2018-03-25T07:30:51.018Z,8.00
2018-03-25T07:31:51.173Z,7.91
2018-03-25T07:32:50.928Z,7.88
2018-03-25T07:33:50.892Z,7.95
2018-03-25T07:34:51.141Z,7.84
2018-03-25T07:35:50.800Z,7.79
2018-03-25T07:36:50.758Z,7.73
2018-03-25T07:37:50.711Z,7.73
2018-03-25T07:38:50.668Z,7.82
2018-03-25T07:39:50.621Z,7.81
2018-03-25T07:40:50.576Z,7.82
2018-03-25T07:41:50.834Z,7.89
2018-03-25T07:42:50.492Z,7.82
2018-03-25T07:43:50.458Z,7.77
2018-03-25T07:44:50.409Z,7.91
2018-03-25T07:45:50.359Z,7.86
2018-03-25T07:46:50.315Z,8.04
2018-03-25T07:47:50.279Z,8.18
2018-03-25T07:48:50.535Z,8.24
2018-03-25T07:49:50.191Z,8.40
2018-03-25T07:50:50.146Z,8.24
2018-03-25T07:51:50.097Z,8.37
2018-03-25T07:52:50.054Z,8.36
2018-03-25T07:53:50.060Z,8.50
2018-03-25T07:54:50.018Z,8.64
2018-03-25T07:55:50.225Z,8.60
2018-03-25T07:56:49.932Z,8.60
2018-03-25T07:57:49.838Z,8.80
2018-03-25T07:58:49.851Z,8.83
2018-03-25T07:59:49.801Z,8.97
2018-03-25T08:00:49.708Z,8.83
2018-03-25T08:01:50.014Z,8.88
2018-03-25T08:02:49.620Z,8.83
2018-03-25T08:03:49.631Z,8.83
2018-03-25T08:04:49.583Z,8.79
2018-03-25T08:05:49.694Z,8.85
2018-03-25T08:06:49.549Z,8.71
2018-03-25T08:07:49.715Z,8.63
2018-03-25T08:08:49.670Z,8.49
2018-03-25T08:09:49.326Z,8.46
2018-03-25T08:10:49.279Z,8.36
2018-03-25T08:11:49.291Z,8.50
2018-03-25T08:12:49.191Z,8.68
2018-03-25T08:13:49.448Z,8.58
2018-03-25T08:14:49.105Z,8.67
2018-03-25T08:15:49.062Z,8.88
2018-03-25T08:16:49.070Z,8.82
2018-03-25T08:17:49.132Z,8.83
2018-03-25T08:18:48.939Z,8.93
2018-03-25T08:19:49.190Z,8.94
2018-03-25T08:20:48.852Z,8.80
2018-03-25T08:21:48.808Z,8.76
2018-03-25T08:22:48.964Z,8.93
2018-03-25T08:23:48.724Z,8.97
2018-03-25T08:24:48.882Z,9.08
2018-03-25T08:25:48.934Z,9.19
2018-03-25T08:26:48.593Z,9.31
2018-03-25T08:27:48.550Z,9.31
2018-03-25T08:28:48.509Z,8.96
2018-03-25T08:29:48.566Z,8.98
2018-03-25T08:30:48.420Z,9.13
2018-03-25T08:31:48.726Z,9.15
2018-03-25T08:32:48.334Z,9.27
2018-03-25T08:33:48.302Z,9.13
2018-03-25T08:34:48.329Z,9.26
2018-03-25T08:35:48.506Z,9.16
2018-03-25T08:36:48.320Z,9.40
2018-03-25T08:37:48.123Z,9.44
2018-03-25T08:38:48.380Z,9.31
2018-03-25T08:39:48.085Z,9.27
2018-03-25T08:40:48.045Z,9.31
2018-03-25T08:41:48.005Z,9.27
2018-03-25T08:42:48.060Z,9.27
2018-03-25T08:43:47.872Z,9.20
2018-03-25T08:44:47.874Z,9.40
2018-03-25T08:45:48.184Z,9.62
2018-03-25T08:46:47.789Z,9.63
2018-03-25T08:47:47.696Z,9.73
2018-03-25T08:48:47.658Z,9.83
2018-03-25T08:49:47.615Z,9.85
2018-03-25T08:50:47.573Z,9.73
2018-03-25T08:51:47.576Z,9.83
2018-03-25T08:52:47.786Z,9.93
2018-03-25T08:53:47.494Z,9.80
2018-03-25T08:54:47.452Z,9.78
2018-03-25T08:55:47.363Z,9.78
2018-03-25T08:56:47.366Z,9.81
2018-03-25T08:57:47.278Z,9.92
2018-03-25T08:58:47.283Z,10.11
2018-03-25T08:59:47.549Z,10.28
2018-03-25T09:00:47.152Z,10.38
2018-03-25T09:01:47.309Z,10.43
2018-03-25T09:02:47.069Z,10.35
2018-03-25T09:03:47.074Z,10.42
2018-03-25T09:04:47.036Z,10.07
2018-03-25T09:05:46.937Z,10.01
2018-03-25T09:06:47.253Z,10.07
2018-03-25T09:07:46.853Z,10.10
2018-03-25T09:08:46.960Z,10.13
2018-03-25T09:09:46.821Z,10.47
2018-03-25T09:10:46.726Z,10.68
2018-03-25T09:11:46.736Z,10.84
2018-03-25T09:12:46.651Z,10.80
2018-03-25T09:13:47.002Z,10.81
2018-03-25T09:14:46.623Z,10.70
2018-03-25T09:15:46.520Z,10.70
2018-03-25T09:16:46.532Z,10.55
2018-03-25T09:17:46.441Z,10.70
2018-03-25T09:18:46.719Z,10.73
2018-03-25T09:19:46.659Z,10.62
2018-03-25T09:20:46.310Z,10.65
2018-03-25T09:21:46.588Z,10.81
2018-03-25T09:22:46.229Z,10.80
2018-03-25T09:23:46.235Z,10.91
2018-03-25T09:24:46.196Z,10.98
2018-03-25T09:25:46.404Z,11.11
2018-03-25T09:26:46.113Z,11.31
2018-03-25T09:27:46.020Z,11.36
2018-03-25T09:28:46.130Z,11.49
2018-03-25T09:29:45.988Z,11.45
2018-03-25T09:30:45.897Z,11.45
2018-03-25T09:31:46.355Z,11.79
2018-03-25T09:32:45.827Z,12.03
2018-03-25T09:33:45.835Z,12.23
2018-03-25T09:34:45.799Z,12.13
2018-03-25T09:35:45.692Z,11.49
2018-03-25T09:36:45.752Z,11.53
2018-03-25T09:37:45.920Z,11.84
2018-03-25T09:38:45.625Z,11.98
2018-03-25T09:39:45.580Z,12.00
2018-03-25T09:40:45.488Z,12.21
2018-03-25T09:41:45.548Z,12.48
2018-03-25T09:42:45.467Z,12.26
2018-03-25T09:43:45.867Z,12.16
2018-03-25T09:44:45.382Z,11.97
2018-03-25T09:45:45.291Z,12.08
2018-03-25T09:46:45.306Z,12.08
2018-03-25T09:47:45.263Z,11.97
2018-03-25T09:48:45.316Z,12.03
2018-03-25T09:49:45.322Z,12.04
2018-03-25T09:50:45.384Z,12.01
2018-03-25T09:51:45.095Z,11.69
2018-03-25T09:52:45.225Z,11.75
2018-03-25T09:53:45.114Z,11.81
2018-03-25T09:54:44.924Z,12.13
2018-03-25T09:55:44.880Z,12.18
2018-03-25T09:56:44.890Z,12.21
2018-03-25T09:57:45.105Z,12.21
2018-03-25T09:58:44.828Z,12.11
2018-03-25T09:59:44.876Z,12.18
2018-03-25T10:00:44.679Z,12.16
2018-03-25T10:01:44.694Z,12.43
2018-03-25T10:02:44.748Z,12.46
2018-03-25T10:03:44.583Z,12.37
2018-03-25T10:04:45.068Z,12.46
2018-03-25T10:05:44.484Z,12.55
2018-03-25T10:06:44.487Z,12.34
2018-03-25T10:07:44.548Z,12.37
2018-03-25T10:08:44.359Z,12.34
2018-03-25T10:09:44.479Z,12.48
2018-03-25T10:10:44.326Z,12.69
2018-03-25T10:11:44.637Z,12.40
2018-03-25T10:12:44.347Z,12.18
2018-03-25T10:13:44.153Z,12.44
2018-03-25T10:14:44.164Z,12.43
2018-03-25T10:15:44.072Z,12.49
2018-03-25T10:16:44.088Z,12.73
2018-03-25T10:17:44.046Z,12.95
2018-03-25T10:18:44.251Z,13.12
2018-03-25T10:19:43.961Z,13.35
2018-03-25T10:20:43.870Z,13.31
2018-03-25T10:21:43.884Z,12.91
2018-03-25T10:22:43.841Z,13.13
2018-03-25T10:23:43.749Z,13.24
2018-03-25T10:24:43.710Z,13.22
2018-03-25T10:25:43.976Z,13.09
2018-03-25T10:26:43.845Z,13.25
2018-03-25T10:27:43.642Z,13.43
2018-03-25T10:28:43.899Z,13.57
2018-03-25T10:29:43.562Z,13.65
2018-03-25T10:30:43.624Z,13.61
2018-03-25T10:31:43.935Z,13.57
2018-03-25T10:32:43.449Z,13.73
2018-03-25T10:33:43.356Z,13.75
2018-03-25T10:34:43.464Z,13.29
2018-03-25T10:35:43.322Z,13.72
2018-03-25T10:36:43.284Z,13.55
2018-03-25T10:37:43.584Z,13.65
2018-03-25T10:38:43.159Z,13.91
2018-03-25T10:39:43.166Z,13.68
2018-03-25T10:40:43.276Z,13.76
2018-03-25T10:41:43.241Z,13.80
2018-03-25T10:42:43.049Z,13.46
2018-03-25T10:43:43.265Z,13.50
2018-03-25T10:44:42.974Z,13.66
2018-03-25T10:45:43.038Z,13.94
2018-03-25T10:46:42.842Z,14.29
2018-03-25T10:47:42.854Z,14.17
2018-03-25T10:48:42.770Z,14.29
2018-03-25T10:49:43.075Z,14.27
2018-03-25T10:50:42.735Z,14.20
2018-03-25T10:51:42.711Z,14.08
2018-03-25T10:52:42.662Z,13.75
2018-03-25T10:53:42.571Z,13.43
2018-03-25T10:54:42.580Z,13.47
2018-03-25T10:55:42.844Z,13.48
2018-03-25T10:56:42.554Z,13.69
2018-03-25T10:57:42.464Z,13.98
2018-03-25T10:58:42.379Z,14.13
2018-03-25T10:59:42.490Z,14.19
2018-03-25T11:00:42.350Z,14.38
2018-03-25T11:01:42.309Z,14.48
2018-03-25T11:02:42.576Z,14.29
2018-03-25T11:03:42.184Z,14.60
2018-03-25T11:04:42.213Z,14.98
2018-03-25T11:05:42.158Z,15.09
2018-03-25T11:06:42.220Z,15.23
2018-03-25T11:07:42.081Z,15.34
2018-03-25T11:08:41.993Z,15.46
2018-03-25T11:09:42.306Z,15.49
2018-03-25T11:10:41.968Z,15.01
2018-03-25T11:11:41.883Z,14.75
2018-03-25T11:12:42.041Z,14.41
2018-03-25T11:13:41.823Z,14.46
2018-03-25T11:14:41.816Z,14.66
2018-03-25T11:15:42.029Z,14.44
2018-03-25T11:16:41.991Z,14.94
2018-03-25T11:17:41.857Z,14.95
2018-03-25T11:18:41.623Z,15.07
2018-03-25T11:19:41.631Z,15.18
2018-03-25T11:20:41.598Z,15.53
2018-03-25T11:21:41.502Z,15.49
2018-03-25T11:22:41.515Z,15.46
2018-03-25T11:23:41.734Z,15.27
2018-03-25T11:24:41.545Z,15.52
2018-03-25T11:25:41.409Z,15.40
2018-03-25T11:26:41.321Z,15.59
2018-03-25T11:27:41.339Z,15.85
2018-03-25T11:28:41.243Z,15.41
2018-03-25T11:29:41.261Z,14.57
2018-03-25T11:30:41.477Z,14.86
2018-03-25T11:31:41.182Z,14.91
2018-03-25T11:32:41.142Z,14.75
2018-03-25T11:33:41.057Z,14.87
2018-03-25T11:34:41.323Z,14.86
2018-03-25T11:35:41.037Z,14.93
2018-03-25T11:36:40.951Z,15.00
2018-03-25T11:37:41.256Z,14.85
2018-03-25T11:38:40.868Z,14.94
2018-03-25T11:39:40.880Z,15.22
2018-03-25T11:40:40.993Z,15.27
2018-03-25T11:41:40.757Z,15.27
2018-03-25T11:42:40.867Z,15.01
2018-03-25T11:43:40.982Z,14.83
2018-03-25T11:44:40.943Z,14.39
2018-03-25T11:45:40.656Z,14.42
2018-03-25T11:46:40.579Z,14.31
2018-03-25T11:47:40.580Z,14.56
2018-03-25T11:48:40.492Z,14.31
2018-03-25T11:49:40.904Z,14.06
2018-03-25T11:50:40.468Z,13.84
2018-03-25T11:51:40.378Z,13.75
2018-03-25T11:52:40.394Z,13.94
2018-03-25T11:53:40.301Z,14.12
2018-03-25T11:54:40.313Z,14.08
2018-03-25T11:55:40.523Z,13.83
2018-03-25T11:56:40.237Z,13.87
2018-03-25T11:57:40.196Z,13.91
2018-03-25T11:58:40.106Z,14.11
2018-03-25T11:59:40.163Z,14.06
2018-03-25T12:00:40.079Z,13.93
2018-03-25T12:01:40.985Z,13.79
2018-03-25T12:02:40.433Z,13.94
2018-03-25T12:03:40.658Z,14.01
2018-03-25T12:04:40.024Z,14.08
2018-03-25T12:05:39.890Z,13.88
2018-03-25T12:06:39.809Z,13.90
2018-03-25T12:07:40.260Z,13.54
2018-03-25T12:08:39.775Z,13.28
2018-03-25T12:09:39.731Z,13.21
2018-03-25T12:10:39.687Z,13.13
2018-03-25T12:11:39.609Z,13.22
2018-03-25T12:12:39.857Z,13.10
2018-03-25T12:13:39.826Z,12.96
2018-03-25T12:14:39.530Z,12.98
2018-03-25T12:15:39.488Z,13.21
2018-03-25T12:16:39.402Z,13.16
2018-03-25T12:17:39.781Z,13.25
2018-03-25T12:18:39.522Z,13.03
2018-03-25T12:19:39.581Z,12.94
2018-03-25T12:20:39.537Z,13.10
2018-03-25T12:21:39.654Z,12.88
2018-03-25T12:22:39.215Z,12.94
2018-03-25T12:23:39.166Z,12.89
2018-03-25T12:24:39.135Z,13.04
2018-03-25T12:25:39.250Z,12.96
2018-03-25T12:26:38.997Z,12.91
2018-03-25T12:27:39.310Z,12.91
2018-03-25T12:28:38.967Z,12.63
2018-03-25T12:29:38.931Z,12.70
2018-03-25T12:30:39.037Z,12.69
2018-03-25T12:31:38.794Z,12.80
2018-03-25T12:32:38.806Z,12.89
2018-03-25T12:33:38.813Z,12.94
2018-03-25T12:34:39.022Z,13.07
2018-03-25T12:35:38.683Z,13.10
2018-03-25T12:36:38.591Z,13.13
2018-03-25T12:37:38.605Z,13.03
2018-03-25T12:38:38.579Z,12.96
2018-03-25T12:39:38.682Z,13.04
2018-03-25T12:40:38.487Z,13.07
2018-03-25T12:41:38.700Z,12.96
2018-03-25T12:42:38.415Z,12.91
2018-03-25T12:43:38.461Z,13.04
2018-03-25T12:44:38.355Z,13.17
2018-03-25T12:45:38.286Z,13.09
2018-03-25T12:46:38.192Z,13.39
2018-03-25T12:47:38.393Z,13.06
2018-03-25T12:48:38.514Z,12.99
2018-03-25T12:49:38.275Z,13.10
2018-03-25T12:50:38.172Z,13.14
2018-03-25T12:51:37.984Z,13.29
2018-03-25T12:52:38.151Z,13.48
2018-03-25T12:53:38.101Z,13.10
2018-03-25T12:54:37.871Z,13.35
2018-03-25T12:55:38.168Z,13.36
2018-03-25T12:56:37.780Z,13.17
2018-03-25T12:57:37.859Z,13.12
2018-03-25T12:58:37.752Z,13.13
2018-03-25T12:59:37.664Z,13.31
2018-03-25T13:00:37.913Z,13.44
2018-03-25T13:01:37.908Z,13.48
2018-03-25T13:02:37.600Z,13.48
2018-03-25T13:03:37.546Z,13.54
2018-03-25T13:04:37.466Z,13.61
2018-03-25T13:05:37.473Z,13.66
2018-03-25T13:06:37.374Z,13.68
2018-03-25T13:07:37.845Z,13.63
2018-03-25T13:08:37.344Z,13.46
2018-03-25T13:09:37.760Z,13.53
2018-03-25T13:10:37.265Z,13.50
2018-03-25T13:11:37.331Z,13.68